Time,TemperatureF,DewpointF,PressureIn,WindDirection,WindDirectionDegrees,WindSpeedMPH,WindSpeedGustMPH,Humidity,HourlyPrecipIn,Conditions,Clouds,dailyrainin,SoftwareType,DateUTC
2013-02-03 00:02:00,7.0,3.0,-100.00,West,280,0.0,0.0,84,0.00,,,-99.99,,2013-02-03 06:02:00,
2013-02-03 00:11:00,7.0,3.0,-100.00,West,280,0.0,0.0,84,0.00,,,-99.99,,2013-02-03 06:11:00,
2013-02-03 00:42:00,7.0,4.0,-100.00,NNW,345,0.0,0.0,88,0.00,,,-99.99,,2013-02-03 06:42:00,
2013-02-03 00:52:00,7.0,4.0,-100.00,NNW,345,0.0,0.0,88,0.00,,,-99.99,,2013-02-03 06:52:00,
2013-02-03 01:01:00,7.0,4.0,-100.00,NNW,345,0.0,0.0,88,0.00,,,-99.99,,2013-02-03 07:01:00,
2013-02-03 01:11:00,7.0,4.0,-100.00,NNW,345,0.0,0.0,88,0.00,,,-99.99,,2013-02-03 07:11:00,
2013-02-03 01:42:00,8.0,5.0,-100.00,NW,325,0.0,0.0,90,0.00,,,-99.99,,2013-02-03 07:42:00,
2013-02-03 01:52:00,8.0,5.0,-100.00,NW,325,0.0,0.0,90,0.00,,,-99.99,,2013-02-03 07:52:00,
2013-02-03 02:01:00,8.0,5.0,-100.00,NW,325,0.0,0.0,90,0.00,,,-99.99,,2013-02-03 08:01:00,
2013-02-03 02:11:00,8.0,5.0,-100.00,NW,325,0.0,0.0,90,0.00,,,-99.99,,2013-02-03 08:11:00,
2013-02-03 02:42:00,8.0,6.0,-100.00,WNW,295,0.0,0.0,91,0.00,,,-99.99,,2013-02-03 08:42:00,
2013-02-03 02:52:00,8.0,6.0,-100.00,WNW,295,0.0,0.0,91,0.00,,,-99.99,,2013-02-03 08:52:00,
2013-02-03 03:02:00,8.0,6.0,-100.00,WNW,295,0.0,0.0,91,0.00,,,-99.99,,2013-02-03 09:02:00,
2013-02-03 03:11:00,8.0,6.0,-100.00,WNW,295,0.0,0.0,91,0.00,,,-99.99,,2013-02-03 09:11:00,
2013-02-03 03:42:00,8.0,6.0,-100.00,WNW,285,0.0,0.0,92,0.00,,,-99.99,,2013-02-03 09:42:00,
2013-02-03 03:52:00,8.0,6.0,-100.00,WNW,285,0.0,0.0,92,0.00,,,-99.99,,2013-02-03 09:52:00,
2013-02-03 04:01:00,8.0,6.0,-100.00,WNW,285,0.0,0.0,92,0.00,,,-99.99,,2013-02-03 10:01:00,
2013-02-03 04:11:00,8.0,6.0,-100.00,WNW,285,0.0,0.0,92,0.00,,,-99.99,,2013-02-03 10:11:00,
2013-02-03 04:42:00,8.0,6.0,-100.00,West,280,0.0,0.0,93,0.00,,,-99.99,,2013-02-03 10:42:00,
2013-02-03 04:53:00,8.0,6.0,-100.00,West,280,0.0,0.0,93,0.00,,,-99.99,,2013-02-03 10:53:00,
2013-02-03 05:02:00,8.0,6.0,-100.00,West,280,0.0,0.0,93,0.00,,,-99.99,,2013-02-03 11:02:00,
2013-02-03 05:11:00,8.0,6.0,-100.00,West,280,0.0,0.0,93,0.00,,,-99.99,,2013-02-03 11:11:00,
2013-02-03 05:42:00,8.0,6.0,-100.00,WNW,290,0.0,0.0,94,0.00,,,-99.99,,2013-02-03 11:42:00,
2013-02-03 05:52:00,8.0,6.0,-100.00,WNW,290,0.0,0.0,94,0.00,,,-99.99,,2013-02-03 11:52:00,
2013-02-03 06:02:00,8.0,6.0,-100.00,WNW,290,0.0,0.0,94,0.00,,,-99.99,,2013-02-03 12:02:00,
2013-02-03 06:11:00,8.0,6.0,-100.00,WNW,290,0.0,0.0,94,0.00,,,-99.99,,2013-02-03 12:11:00,
2013-02-03 06:42:00,9.0,8.0,-100.00,WNW,295,0.0,0.0,95,0.00,,,-99.99,,2013-02-03 12:42:00,
2013-02-03 06:53:00,9.0,8.0,-100.00,WNW,295,0.0,0.0,95,0.00,,,-99.99,,2013-02-03 12:53:00,
2013-02-03 07:03:00,9.0,8.0,-100.00,WNW,295,0.0,0.0,95,0.00,,,-99.99,,2013-02-03 13:03:00,
2013-02-03 07:11:00,9.0,8.0,-100.00,WNW,295,0.0,0.0,95,0.00,,,-99.99,,2013-02-03 13:11:00,
2013-02-03 07:42:00,9.0,8.0,-100.00,NW,310,0.0,0.0,92,0.00,,,-99.99,,2013-02-03 13:42:00,
2013-02-03 07:52:00,9.0,8.0,-100.00,NW,310,0.0,0.0,92,0.00,,,-99.99,,2013-02-03 13:52:00,
2013-02-03 08:02:00,9.0,8.0,-100.00,NW,310,0.0,0.0,92,0.00,,,-99.99,,2013-02-03 14:02:00,
2013-02-03 08:11:00,9.0,8.0,-100.00,NW,310,0.0,0.0,92,0.00,,,-99.99,,2013-02-03 14:11:00,
2013-02-03 08:42:00,9.0,6.0,-100.00,NW,310,0.0,0.0,86,0.00,,,-99.99,,2013-02-03 14:42:00,
2013-02-03 08:52:00,9.0,6.0,-100.00,NW,310,0.0,0.0,86,0.00,,,-99.99,,2013-02-03 14:52:00,
2013-02-03 09:03:00,9.0,6.0,-100.00,NW,310,0.0,0.0,86,0.00,,,-99.99,,2013-02-03 15:03:00,
2013-02-03 09:11:00,9.0,6.0,-100.00,NW,310,0.0,0.0,86,0.00,,,-99.99,,2013-02-03 15:11:00,
2013-02-03 09:42:00,10.0,5.0,-100.00,WNW,300,0.0,0.0,82,0.00,,,-99.99,,2013-02-03 15:42:00,
2013-02-03 09:52:00,10.0,5.0,-100.00,WNW,300,0.0,0.0,82,0.00,,,-99.99,,2013-02-03 15:52:00,
2013-02-03 10:02:00,10.0,5.0,-100.00,WNW,300,0.0,0.0,82,0.00,,,-99.99,,2013-02-03 16:02:00,
2013-02-03 10:11:00,10.0,5.0,-100.00,WNW,300,0.0,0.0,82,0.00,,,-99.99,,2013-02-03 16:11:00,
2013-02-03 10:42:00,12.0,5.0,-100.00,WNW,285,0.0,0.0,72,0.00,,,-99.99,,2013-02-03 16:42:00,
2013-02-03 10:52:00,12.0,5.0,-100.00,WNW,285,0.0,0.0,72,0.00,,,-99.99,,2013-02-03 16:52:00,
2013-02-03 11:02:00,12.0,5.0,-100.00,WNW,285,0.0,0.0,72,0.00,,,-99.99,,2013-02-03 17:02:00,
2013-02-03 11:11:00,12.0,5.0,-100.00,WNW,285,0.0,0.0,72,0.00,,,-99.99,,2013-02-03 17:11:00,
2013-02-03 11:42:00,14.0,5.0,-100.00,West,280,0.0,0.0,65,0.00,,,-99.99,,2013-02-03 17:42:00,
2013-02-03 11:52:00,14.0,5.0,-100.00,West,280,0.0,0.0,65,0.00,,,-99.99,,2013-02-03 17:52:00,
2013-02-03 12:03:00,14.0,5.0,-100.00,West,280,0.0,0.0,65,0.00,,,-99.99,,2013-02-03 18:03:00,
2013-02-03 12:12:00,14.0,5.0,-100.00,West,280,0.0,0.0,65,0.00,,,-99.99,,2013-02-03 18:12:00,
2013-02-03 12:42:00,15.0,4.0,-100.00,WNW,300,0.0,0.0,61,0.00,,,-99.99,,2013-02-03 18:42:00,
2013-02-03 12:52:00,15.0,4.0,-100.00,WNW,300,0.0,0.0,61,0.00,,,-99.99,,2013-02-03 18:52:00,
2013-02-03 13:02:00,15.0,4.0,-100.00,WNW,300,0.0,0.0,61,0.00,,,-99.99,,2013-02-03 19:02:00,
2013-02-03 13:11:00,15.0,4.0,-100.00,WNW,300,0.0,0.0,61,0.00,,,-99.99,,2013-02-03 19:11:00,
2013-02-03 13:42:00,16.0,5.0,-100.00,WNW,290,0.0,0.0,62,0.00,,,-99.99,,2013-02-03 19:42:00,
2013-02-03 13:52:00,16.0,5.0,-100.00,WNW,290,0.0,0.0,62,0.00,,,-99.99,,2013-02-03 19:52:00,
2013-02-03 14:01:00,16.0,5.0,-100.00,WNW,290,0.0,0.0,62,0.00,,,-99.99,,2013-02-03 20:01:00,
2013-02-03 14:12:00,16.0,5.0,-100.00,WNW,290,0.0,0.0,62,0.00,,,-99.99,,2013-02-03 20:12:00,
2013-02-03 14:42:00,16.0,4.0,-100.00,WNW,295,0.0,0.0,59,0.00,,,-99.99,,2013-02-03 20:42:00,
2013-02-03 14:52:00,16.0,4.0,-100.00,WNW,295,0.0,0.0,59,0.00,,,-99.99,,2013-02-03 20:52:00,
2013-02-03 15:03:00,16.0,4.0,-100.00,WNW,295,0.0,0.0,59,0.00,,,-99.99,,2013-02-03 21:03:00,
2013-02-03 15:11:00,16.0,4.0,-100.00,WNW,295,0.0,0.0,59,0.00,,,-99.99,,2013-02-03 21:11:00,
2013-02-03 15:42:00,15.0,3.0,-100.00,WNW,290,0.0,0.0,59,0.00,,,-99.99,,2013-02-03 21:42:00,
2013-02-03 15:52:00,15.0,3.0,-100.00,WNW,290,0.0,0.0,59,0.00,,,-99.99,,2013-02-03 21:52:00,
2013-02-03 16:01:00,15.0,3.0,-100.00,WNW,290,0.0,0.0,59,0.00,,,-99.99,,2013-02-03 22:01:00,
2013-02-03 16:11:00,15.0,3.0,-100.00,WNW,290,0.0,0.0,59,0.00,,,-99.99,,2013-02-03 22:11:00,
2013-02-03 16:42:00,14.0,3.0,-100.00,West,275,0.0,0.0,61,0.00,,,-99.99,,2013-02-03 22:42:00,
2013-02-03 16:52:00,14.0,3.0,-100.00,West,275,0.0,0.0,61,0.00,,,-99.99,,2013-02-03 22:52:00,
2013-02-03 17:01:00,14.0,3.0,-100.00,West,275,0.0,0.0,61,0.00,,,-99.99,,2013-02-03 23:01:00,
2013-02-03 17:12:00,14.0,3.0,-100.00,West,275,0.0,0.0,61,0.00,,,-99.99,,2013-02-03 23:12:00,
2013-02-03 18:42:00,12.0,4.0,-100.00,West,280,0.0,0.0,69,0.00,,,-99.99,,2013-02-04 00:42:00,
2013-02-03 18:52:00,12.0,4.0,-100.00,West,280,0.0,0.0,69,0.00,,,-99.99,,2013-02-04 00:52:00,
2013-02-03 19:01:00,12.0,4.0,-100.00,West,280,0.0,0.0,69,0.00,,,-99.99,,2013-02-04 01:01:00,
2013-02-03 19:11:00,12.0,4.0,-100.00,West,280,0.0,0.0,69,0.00,,,-99.99,,2013-02-04 01:11:00,
2013-02-03 19:42:00,13.0,5.0,-100.00,WNW,300,0.0,0.0,71,0.00,,,-99.99,,2013-02-04 01:42:00,
2013-02-03 19:52:00,13.0,5.0,-100.00,WNW,300,0.0,0.0,71,0.00,,,-99.99,,2013-02-04 01:52:00,
2013-02-03 20:02:00,13.0,5.0,-100.00,WNW,300,0.0,0.0,71,0.00,,,-99.99,,2013-02-04 02:02:00,
2013-02-03 20:11:00,13.0,5.0,-100.00,WNW,300,0.0,0.0,71,0.00,,,-99.99,,2013-02-04 02:11:00,
2013-02-03 20:42:00,12.0,8.0,-100.00,WNW,295,0.0,0.0,83,0.00,,,-99.99,,2013-02-04 02:42:00,
2013-02-03 20:52:00,12.0,8.0,-100.00,WNW,295,0.0,0.0,83,0.00,,,-99.99,,2013-02-04 02:52:00,
2013-02-03 21:02:00,12.0,8.0,-100.00,WNW,295,0.0,0.0,83,0.00,,,-99.99,,2013-02-04 03:02:00,
2013-02-03 21:11:00,12.0,8.0,-100.00,WNW,295,0.0,0.0,83,0.00,,,-99.99,,2013-02-04 03:11:00,
2013-02-03 21:42:00,12.0,9.0,-100.00,WNW,290,0.0,0.0,89,0.00,,,-99.99,,2013-02-04 03:42:00,
2013-02-03 21:52:00,12.0,9.0,-100.00,WNW,290,0.0,0.0,89,0.00,,,-99.99,,2013-02-04 03:52:00,
2013-02-03 22:01:00,12.0,9.0,-100.00,WNW,290,0.0,0.0,89,0.00,,,-99.99,,2013-02-04 04:01:00,
2013-02-03 22:11:00,12.0,9.0,-100.00,WNW,290,0.0,0.0,89,0.00,,,-99.99,,2013-02-04 04:11:00,
2013-02-03 22:42:00,12.0,10.0,-100.00,West,275,0.0,0.0,92,0.00,,,-99.99,,2013-02-04 04:42:00,
2013-02-03 22:52:00,12.0,10.0,-100.00,West,275,0.0,0.0,92,0.00,,,-99.99,,2013-02-04 04:52:00,
2013-02-03 23:03:00,12.0,10.0,-100.00,West,275,0.0,0.0,92,0.00,,,-99.99,,2013-02-04 05:03:00,
2013-02-03 23:11:00,12.0,10.0,-100.00,West,275,0.0,0.0,92,0.00,,,-99.99,,2013-02-04 05:11:00,
2013-02-03 23:20:00,12.0,10.0,-100.00,ESE,110,0.0,0.0,94,0.00,,,-99.99,,2013-02-04 05:20:00,
2013-02-03 23:42:00,12.0,10.0,-100.00,ESE,110,0.0,0.0,94,0.00,,,-99.99,,2013-02-04 05:42:00,
2013-02-03 23:52:00,12.0,10.0,-100.00,ESE,110,0.0,0.0,94,0.00,,,-99.99,,2013-02-04 05:52:00,